Latest Weather Observations for Fingal

IDT60801

Issued at 4:41 pm EST Thursday 18 July 2019 (issued every 10 minutes, with the page automatically refreshed every 10 minutes)

About weather observations | Map of weather stations | Latest weather observations for TAS | Other Formats
Station Details ID: 092012 Name: FINGAL (LEGGE STREET) Lat: -41.64 Lon: 147.97 Height: 237.0 m
Data from the previous 72 hours. | See also: Recent months at Fingal
Date/Time
EST
Temp
°C
App
Temp
°C
Dew
Point
°C
Rel
Hum
%
Delta-T
°C
Wind Press
QNH
hPa
Press
MSL
hPa
Rain since
9am
mm
Dir  Spd
km/h
Gust
km/h
Spd
kts
Gust
kts
18/04:30pm 9.9 6.5 -0.6 48 4.2 SW 7 11 4 6 - - -
18/04:00pm 9.9 7.2 0.5 52 3.9 WNW 4 7 2 4 - - -
18/03:30pm 10.1 6.4 -0.1 49 4.2 WSW 9 15 5 8 - - -
18/03:00pm 10.4 7.1 -0.1 48 4.3 WNW 7 11 4 6 - - -
18/02:30pm 10.8 7.0 -0.6 45 4.6 W 9 13 5 7 - - -
18/02:00pm 10.6 6.5 0.1 48 4.3 W 11 15 6 8 - - -
18/01:30pm 10.8 7.4 -0.3 46 4.5 SW 7 13 4 7 - - -
18/01:00pm 12.1 8.7 -2.1 37 5.6 W 6 11 3 6 - - -
18/12:30pm 10.9 8.3 -1.5 42 4.9 NW 2 6 1 3 - - 0.0
18/12:00pm 10.0 7.0 -1.7 44 4.6 NNW 4 9 2 5 - - 0.0
18/11:30am 10.0 6.1 -1.7 44 4.6 NNE 9 13 5 7 - - 0.0
18/11:00am 10.0 6.6 -1.7 44 4.6 W 6 11 3 6 - - 0.0
18/10:30am 10.1 6.3 -1.0 46 4.4 WNW 9 15 5 8 - - 0.0
18/10:00am 9.7 5.7 -1.9 44 4.5 W 9 17 5 9 - - 0.0
18/09:30am 8.8 4.3 -0.5 52 3.7 NW 13 17 7 9 - - 0.0
18/09:00am 8.6 4.4 -0.9 51 3.7 NNE 11 17 6 9 - - 0.0
18/08:30am 8.1 2.0 -2.0 49 3.8 SW 20 46 11 25 - - 0.0
18/08:00am 6.8 1.8 -1.1 57 3.0 SSW 15 22 8 12 - - 0.0
18/07:30am 6.8 0.5 -1.1 57 3.0 SW 22 33 12 18 - - 0.0
18/07:00am 7.0 0.3 -0.9 57 3.1 SW 24 39 13 21 - - 0.0
18/06:30am 7.1 0.8 -1.1 56 3.2 SSW 22 35 12 19 - - 0.0
18/06:00am 7.3 0.6 -1.1 55 3.2 SSW 24 41 13 22 - - 0.0
18/05:30am 7.0 1.3 -0.9 57 3.1 SW 19 32 10 17 - - 0.0
18/05:00am 6.8 0.9 -0.9 58 3.0 SW 20 30 11 16 - - 0.0
18/04:38am 7.2 -0.6 -1.0 56 3.2 SW 30 48 16 26 - - 0.0
18/04:30am 7.2 -0.6 -0.7 57 3.1 SW 30 44 16 24 - - 0.0
18/04:00am 7.2 -0.2 -1.0 56 3.2 SW 28 48 15 26 - - 0.0
18/03:30am 7.2 0.2 -0.7 57 3.1 SW 26 39 14 21 - - 0.0
18/03:00am 7.0 0.4 -0.7 58 3.0 SSW 24 41 13 22 - - 0.0
18/02:30am 7.0 0.4 -0.7 58 3.0 SW 24 39 13 21 - - 0.0
18/02:00am 6.8 0.9 -0.6 59 2.9 SW 20 33 11 18 - - 0.0
18/01:30am 6.8 1.5 -0.6 59 2.9 SW 17 33 9 18 - - 0.0
18/01:00am 7.0 1.7 -0.7 58 3.0 SW 17 39 9 21 - - 0.0
18/12:30am 7.0 1.7 -0.7 58 3.0 SSW 17 28 9 15 - - 0.0
18/12:00am 6.9 1.6 -0.8 58 3.0 WSW 17 32 9 17 - - 0.0
 
Date/Time
EST
Temp
°C
App
Temp
°C
Dew
Point
°C
Rel
Hum
%
Delta-T
°C
Wind Press
QNH
hPa
Press
MSL
hPa
Rain since
9am
mm
Dir  Spd
km/h
Gust
km/h
Spd
kts
Gust
kts
17/11:30pm 7.0 1.3 -0.7 58 3.0 W 19 32 10 17 - - 0.0
17/11:00pm 7.0 1.7 -0.7 58 3.0 WSW 17 32 9 17 - - 0.0
17/10:30pm 6.6 2.2 0.1 63 2.6 WSW 13 24 7 13 - - 0.0
17/10:00pm 6.9 1.6 -0.3 60 2.8 WSW 17 32 9 17 - - 0.0
17/09:30pm 7.4 2.6 -0.1 59 3.0 WSW 15 30 8 16 - - 0.0
17/09:00pm 7.6 3.2 0.1 59 3.0 SW 13 20 7 11 - - 0.0
17/08:30pm 7.9 3.1 -0.1 57 3.2 SW 15 30 8 16 - - 0.0
17/08:00pm 8.3 3.8 -0.2 55 3.4 WSW 13 26 7 14 - - 0.0
17/07:30pm 8.4 4.0 0.1 56 3.3 W 13 20 7 11 - - 0.0
17/07:00pm 8.5 4.2 0.7 58 3.2 W 13 28 7 15 - - 0.0
17/06:30pm 9.0 3.2 -0.3 52 3.7 WSW 20 41 11 22 - - 0.0
17/06:00pm 9.1 4.5 1.3 58 3.2 WSW 15 24 8 13 - - 0.0
17/05:30pm 9.5 4.2 1.9 59 3.2 W 19 28 10 15 - - 0.0
17/05:00pm 10.2 4.8 2.3 58 3.4 W 20 39 11 21 - - 0.0
17/04:30pm 10.8 5.2 1.4 52 4.0 WSW 20 33 11 18 - - 0.0
17/04:00pm 11.8 5.2 2.0 51 4.3 W 26 46 14 25 - - 0.0
17/03:58pm 11.9 5.3 2.1 51 4.3 W 26 46 14 25 - - 0.0
17/03:54pm 11.9 5.7 2.1 51 4.3 W 24 46 13 25 - - 0.0
17/03:30pm 11.7 7.4 3.2 56 3.8 WNW 15 24 8 13 - - 0.0
17/03:00pm 12.4 7.7 3.4 54 4.1 WNW 17 30 9 16 - - 0.0
17/02:30pm 13.5 9.0 4.4 54 4.2 WNW 17 35 9 19 - - 0.0
17/02:00pm 12.1 7.6 4.1 58 3.6 W 17 26 9 14 - - 0.0
17/01:30pm 12.4 8.6 3.9 56 3.9 W 13 28 7 15 - - 0.0
17/01:00pm 12.5 8.9 2.9 52 4.3 NW 11 19 6 10 - - 0.0
17/12:30pm 12.9 7.7 2.7 50 4.5 NW 19 28 10 15 - - 0.0
17/12:00pm 12.7 8.0 3.1 52 4.3 NW 17 28 9 15 - - 0.0
17/11:30am 13.0 8.2 2.8 50 4.6 W 17 30 9 16 - - 0.0
17/11:00am 12.4 8.2 1.7 48 4.6 WSW 13 24 7 13 - - 0.0
17/10:30am 11.8 7.7 2.3 52 4.2 WNW 13 24 7 13 - - 0.0
17/10:00am 12.0 7.0 1.6 49 4.5 W 17 26 9 14 - - 0.0
17/09:30am 12.0 6.5 1.9 50 4.4 W 20 37 11 20 - - 0.0
17/09:18am 12.5 6.9 1.2 46 4.9 W 20 39 11 21 - - 0.0
17/09:00am 9.0 6.4 3.0 66 2.6 NNW 6 9 3 5 - - 0.0
17/08:30am 10.1 5.2 2.0 57 3.5 W 17 30 9 16 - - 0.0
17/08:00am 9.4 5.7 2.5 62 3.0 WSW 11 17 6 9 - - 0.0
17/07:30am 9.0 5.3 2.6 64 2.7 WSW 11 20 6 11 - - 0.0
17/07:00am 6.3 3.9 2.4 76 1.6 N 4 9 2 5 - - 0.0
17/06:30am 6.5 4.2 2.6 76 1.6 ENE 4 9 2 5 - - 0.0
17/06:00am 6.5 3.6 2.4 75 1.7 NNE 7 13 4 7 - - 0.0
17/05:30am 8.3 4.8 3.6 72 2.1 NE 11 17 6 9 - - 0.0
17/05:00am 10.7 7.1 2.8 58 3.5 SW 11 24 6 13 - - 0.0
17/04:30am 10.6 5.6 3.6 62 3.1 SW 19 33 10 18 - - 0.0
17/04:00am 10.1 6.7 4.0 66 2.7 SW 11 19 6 10 - - 0.0
17/03:30am 9.0 7.5 5.0 76 1.8 SSE 2 13 1 7 - - 0.0
17/03:00am 6.8 5.5 4.1 83 1.2 CALM 0 0 0 0 - - 0.0
17/02:30am 5.2 2.9 2.6 83 1.1 W 4 9 2 5 - - 0.0
17/02:00am 7.0 4.5 4.7 85 1.0 S 7 11 4 6 - - 0.0
17/01:30am 4.9 2.9 2.4 84 1.0 NE 2 7 1 4 - - 0.0
17/01:00am 5.0 3.0 2.2 82 1.1 SE 2 7 1 4 - - 0.0
17/12:30am 5.1 3.5 2.6 84 1.0 CALM 0 0 0 0 - - 0.0
17/12:00am 5.5 3.9 2.7 82 1.2 CALM 0 0 0 0 - - 0.0
 
Date/Time
EST
Temp
°C
App
Temp
°C
Dew
Point
°C
Rel
Hum
%
Delta-T
°C
Wind Press
QNH
hPa
Press
MSL
hPa
Rain since
9am
mm
Dir  Spd
km/h
Gust
km/h
Spd
kts
Gust
kts
16/11:30pm 6.0 3.7 3.0 81 1.3 SSE 4 7 2 4 - - 0.0
16/11:00pm 5.8 3.5 2.8 81 1.3 N 4 9 2 5 - - 0.0
16/10:30pm 6.3 4.4 2.9 79 1.4 SSE 2 7 1 4 - - 0.0
16/10:00pm 6.0 3.3 2.8 80 1.3 S 6 7 3 4 - - 0.0
16/09:30pm 5.3 2.5 2.3 81 1.2 SSE 6 7 3 4 - - 0.0
16/09:00pm 5.8 4.2 2.3 78 1.4 CALM 0 0 0 0 - - 0.0
16/08:30pm 6.2 3.8 2.1 75 1.7 WSW 4 9 2 5 - - 0.0
16/08:00pm 7.4 4.7 2.5 71 2.1 SSW 6 9 3 5 - - 0.0
16/07:30pm 8.5 6.9 2.5 66 2.6 CALM 0 0 0 0 - - 0.0
16/07:00pm 8.7 6.3 2.3 64 2.7 WNW 4 7 2 4 - - 0.0
16/06:30pm 11.2 7.9 2.5 55 3.8 SSW 9 11 5 6 - - 0.0
16/06:00pm 11.7 7.6 2.5 53 4.0 SW 13 22 7 12 - - 0.0
16/05:30pm 12.3 8.7 2.7 52 4.3 SSW 11 17 6 9 - - 0.0
16/05:00pm 12.6 9.0 2.7 51 4.4 SW 11 22 6 12 - - 0.0
16/04:30pm 13.2 8.4 2.4 48 4.8 SW 17 33 9 18 - - 0.0
16/04:00pm 13.7 9.2 2.3 46 5.1 WSW 15 30 8 16 - - 0.0
16/03:30pm 14.4 9.6 2.6 45 5.3 WSW 17 39 9 21 - - 0.0
16/03:00pm 14.5 9.4 3.3 47 5.1 WSW 19 35 10 19 - - 0.0
16/02:30pm 14.7 9.5 3.5 47 5.2 WSW 20 35 11 19 - - 0.0
16/02:00pm 15.0 10.1 4.1 48 5.1 WSW 19 30 10 16 - - 0.0
16/01:30pm 14.2 9.0 3.4 48 4.9 SW 20 30 11 16 - - 0.0
16/01:00pm 13.9 9.3 3.7 50 4.7 SW 17 30 9 16 - - 0.0
16/12:30pm 14.4 9.6 4.4 51 4.7 WSW 19 35 10 19 - - 0.0
16/12:00pm 13.4 8.8 3.8 52 4.4 SW 17 26 9 14 - - 0.0
16/11:30am 13.9 9.4 4.2 52 4.5 WSW 17 30 9 16 - - 0.0
16/11:00am 13.6 8.5 4.2 53 4.4 SW 20 28 11 15 - - 0.0
16/10:30am 13.0 8.9 4.2 55 4.1 SSW 15 26 8 14 - - 0.0
16/10:00am 12.4 7.8 3.6 55 4.0 SW 17 26 9 14 - - 0.0
16/09:30am 12.2 8.4 3.9 57 3.8 SW 13 20 7 11 - - 0.0
16/09:00am 11.7 7.5 3.7 58 3.6 SSW 15 28 8 15 - - 0.0
16/08:30am 11.6 7.7 3.4 57 3.7 SW 13 24 7 13 - - 0.0
16/08:00am 11.0 7.0 2.6 56 3.7 SW 13 26 7 14 - - 0.0
16/07:30am 11.4 6.9 2.4 54 3.9 SSW 15 20 8 11 - - 0.0
16/07:00am 11.4 7.3 2.4 54 3.9 SSW 13 24 7 13 - - 0.0
16/06:30am 11.5 6.7 2.5 54 3.9 SSW 17 33 9 18 - - 0.0
16/06:00am 11.6 6.8 2.6 54 4.0 SSW 17 30 9 16 - - 0.0
16/05:30am 11.9 7.4 2.4 52 4.2 SSW 15 26 8 14 - - 0.0
16/05:00am 11.7 8.1 2.7 54 4.0 SSW 11 20 6 11 - - 0.0
16/04:30am 11.5 8.9 3.0 56 3.8 WSW 6 11 3 6 - - 0.0
16/04:00am 11.6 8.4 2.9 55 3.8 S 9 20 5 11 - - 0.0
16/03:30am 12.1 8.5 2.8 53 4.1 SSW 11 20 6 11 - - 0.0
16/03:00am 11.9 9.1 2.9 54 4.0 WSW 7 15 4 8 - - 0.0
16/02:30am 11.8 8.9 2.8 54 4.0 W 7 13 4 7 - - 0.0
16/02:00am 12.1 8.1 2.6 52 4.2 SW 13 22 7 12 - - 0.0
16/01:30am 11.4 8.5 2.4 54 3.9 W 7 17 4 9 - - 0.0
16/01:00am 12.4 8.0 2.6 51 4.3 SW 15 30 8 16 - - 0.0
16/12:30am 12.8 8.0 2.4 49 4.6 SW 17 30 9 16 - - 0.0
16/12:00am 12.8 8.3 2.1 48 4.7 SW 15 26 8 14 - - 0.0
 
Date/Time
EST
Temp
°C
App
Temp
°C
Dew
Point
°C
Rel
Hum
%
Delta-T
°C
Wind Press
QNH
hPa
Press
MSL
hPa
Rain since
9am
mm
Dir  Spd
km/h
Gust
km/h
Spd
kts
Gust
kts
15/11:30pm 13.2 7.9 2.1 47 4.9 SSW 19 39 10 21 - - 0.0
15/11:00pm 12.9 7.5 2.5 49 4.6 SW 20 39 11 21 - - 0.0
15/10:30pm 12.5 7.7 2.7 51 4.3 SW 17 28 9 15 - - 0.0
15/10:00pm 12.4 7.6 2.8 52 4.3 SW 17 28 9 15 - - 0.0
15/09:30pm 13.0 7.3 2.8 50 4.6 SW 22 35 12 19 - - 0.0
15/09:00pm 13.2 7.9 3.0 50 4.6 SSW 20 33 11 18 - - 0.0
15/08:30pm 13.0 9.9 3.4 52 4.3 SW 9 24 5 13 - - 0.0
15/08:00pm 11.1 8.4 2.9 57 3.6 W 6 15 3 8 - - 0.0
15/07:30pm 12.1 8.1 3.1 54 4.0 SW 13 26 7 14 - - 0.0
15/07:00pm 11.8 8.4 3.8 58 3.6 WSW 11 24 6 13 - - 0.0
15/06:30pm 11.2 7.0 4.0 61 3.3 W 15 26 8 14 - - 0.0
15/06:00pm 11.7 7.5 4.0 59 3.5 SW 15 28 8 15 - - 0.0
15/05:30pm 12.0 7.5 4.0 58 3.6 SW 17 26 9 14 - - 0.0
15/05:00pm 11.4 7.6 3.7 59 3.5 WSW 13 28 7 15 - - 0.0

Other formats

Comma delimited format used in spreadsheet applications
http://www.bom.gov.au/fwo/IDT60801/IDT60801.95974.axf

JavaScript Object Notation format (JSON) in row-major order
http://www.bom.gov.au/fwo/IDT60801/IDT60801.95974.json

Data quality

Most of these data are generated automatically and are frequently updated. Quality checks on data are not normally performed. It is possible for incorrect values to appear. Refer to information at About Latest Weather Observations and please check the disclaimer before using these data.